sensor_id;sensor_type;location;lat;lon;timestamp;P1;durP1;ratioP1;P2;durP2;ratioP2
31206;SDS011;17834;52.992;8.856;2022-09-24T00:01:12;26.65;;;16.35;;
31206;SDS011;17834;52.992;8.856;2022-09-24T00:03:39;27.80;;;16.98;;
31206;SDS011;17834;52.992;8.856;2022-09-24T00:06:07;24.67;;;16.35;;
31206;SDS011;17834;52.992;8.856;2022-09-24T00:08:34;27.00;;;15.85;;
31206;SDS011;17834;52.992;8.856;2022-09-24T00:11:01;25.15;;;15.50;;
31206;SDS011;17834;52.992;8.856;2022-09-24T00:13:27;23.90;;;14.35;;
31206;SDS011;17834;52.992;8.856;2022-09-24T00:15:54;26.13;;;16.33;;
31206;SDS011;17834;52.992;8.856;2022-09-24T00:18:20;25.08;;;15.70;;
31206;SDS011;17834;52.992;8.856;2022-09-24T00:20:46;27.92;;;16.67;;
31206;SDS011;17834;52.992;8.856;2022-09-24T00:23:12;30.55;;;18.15;;
31206;SDS011;17834;52.992;8.856;2022-09-24T00:25:39;26.02;;;17.00;;
31206;SDS011;17834;52.992;8.856;2022-09-24T00:28:24;20.80;;;12.55;;
31206;SDS011;17834;52.992;8.856;2022-09-24T00:30:50;27.00;;;16.60;;
31206;SDS011;17834;52.992;8.856;2022-09-24T00:33:16;26.17;;;16.55;;
31206;SDS011;17834;52.992;8.856;2022-09-24T00:35:43;24.08;;;15.35;;
31206;SDS011;17834;52.992;8.856;2022-09-24T00:38:09;23.20;;;15.85;;
31206;SDS011;17834;52.992;8.856;2022-09-24T00:40:36;30.58;;;17.65;;
31206;SDS011;17834;52.992;8.856;2022-09-24T00:45:47;26.98;;;17.40;;
31206;SDS011;17834;52.992;8.856;2022-09-24T00:48:14;27.33;;;16.98;;
31206;SDS011;17834;52.992;8.856;2022-09-24T00:50:40;28.42;;;17.73;;
31206;SDS011;17834;52.992;8.856;2022-09-24T00:53:10;31.65;;;18.27;;
31206;SDS011;17834;52.992;8.856;2022-09-24T00:55:39;26.80;;;17.45;;
31206;SDS011;17834;52.992;8.856;2022-09-24T00:58:06;27.13;;;17.20;;
31206;SDS011;17834;52.992;8.856;2022-09-24T01:00:33;31.42;;;18.83;;
31206;SDS011;17834;52.992;8.856;2022-09-24T01:03:04;26.67;;;16.88;;
31206;SDS011;17834;52.992;8.856;2022-09-24T01:05:31;33.70;;;18.88;;
31206;SDS011;17834;52.992;8.856;2022-09-24T01:07:57;28.67;;;17.88;;
31206;SDS011;17834;52.992;8.856;2022-09-24T01:10:37;32.22;;;19.58;;
31206;SDS011;17834;52.992;8.856;2022-09-24T01:13:24;29.48;;;17.52;;
31206;SDS011;17834;52.992;8.856;2022-09-24T01:15:54;29.45;;;17.77;;
31206;SDS011;17834;52.992;8.856;2022-09-24T01:18:32;30.33;;;18.60;;
31206;SDS011;17834;52.992;8.856;2022-09-24T01:34:02;33.63;;;20.52;;
31206;SDS011;17834;52.992;8.856;2022-09-24T01:36:33;35.28;;;21.77;;
31206;SDS011;17834;52.992;8.856;2022-09-24T01:39:00;35.97;;;21.30;;
31206;SDS011;17834;52.992;8.856;2022-09-24T01:41:26;36.33;;;21.00;;
31206;SDS011;17834;52.992;8.856;2022-09-24T01:43:52;35.75;;;22.05;;
31206;SDS011;17834;52.992;8.856;2022-09-24T01:46:19;36.17;;;21.10;;
31206;SDS011;17834;52.992;8.856;2022-09-24T01:48:45;34.42;;;21.85;;
31206;SDS011;17834;52.992;8.856;2022-09-24T01:51:20;31.27;;;19.98;;
31206;SDS011;17834;52.992;8.856;2022-09-24T01:54:01;34.77;;;19.93;;
31206;SDS011;17834;52.992;8.856;2022-09-24T01:56:32;36.85;;;20.75;;
31206;SDS011;17834;52.992;8.856;2022-09-24T01:59:00;31.90;;;18.70;;
31206;SDS011;17834;52.992;8.856;2022-09-24T02:01:32;32.45;;;19.80;;
31206;SDS011;17834;52.992;8.856;2022-09-24T02:04:00;33.30;;;20.27;;
31206;SDS011;17834;52.992;8.856;2022-09-24T02:06:32;39.92;;;21.40;;
31206;SDS011;17834;52.992;8.856;2022-09-24T02:09:00;34.53;;;20.80;;
31206;SDS011;17834;52.992;8.856;2022-09-24T02:11:26;36.15;;;21.08;;
31206;SDS011;17834;52.992;8.856;2022-09-24T02:16:20;30.25;;;20.45;;
31206;SDS011;17834;52.992;8.856;2022-09-24T02:18:49;33.40;;;21.20;;
31206;SDS011;17834;52.992;8.856;2022-09-24T02:21:16;35.25;;;19.63;;
31206;SDS011;17834;52.992;8.856;2022-09-24T02:23:46;33.10;;;21.05;;
31206;SDS011;17834;52.992;8.856;2022-09-24T02:26:12;35.67;;;21.38;;
31206;SDS011;17834;52.992;8.856;2022-09-24T02:28:38;34.45;;;20.55;;
31206;SDS011;17834;52.992;8.856;2022-09-24T02:31:07;35.47;;;20.83;;
31206;SDS011;17834;52.992;8.856;2022-09-24T02:33:34;32.90;;;20.38;;
31206;SDS011;17834;52.992;8.856;2022-09-24T02:36:20;33.13;;;19.98;;
31206;SDS011;17834;52.992;8.856;2022-09-24T02:38:48;31.35;;;18.52;;
31206;SDS011;17834;52.992;8.856;2022-09-24T02:41:14;37.08;;;19.80;;
31206;SDS011;17834;52.992;8.856;2022-09-24T02:43:40;32.88;;;20.95;;
31206;SDS011;17834;52.992;8.856;2022-09-24T02:46:06;36.47;;;20.60;;
31206;SDS011;17834;52.992;8.856;2022-09-24T02:48:34;34.35;;;19.42;;
31206;SDS011;17834;52.992;8.856;2022-09-24T02:51:00;38.17;;;20.25;;
31206;SDS011;17834;52.992;8.856;2022-09-24T02:53:28;32.42;;;19.08;;
31206;SDS011;17834;52.992;8.856;2022-09-24T02:55:54;32.50;;;19.65;;
31206;SDS011;17834;52.992;8.856;2022-09-24T02:58:20;33.38;;;19.80;;
31206;SDS011;17834;52.992;8.856;2022-09-24T03:00:46;35.33;;;21.23;;
31206;SDS011;17834;52.992;8.856;2022-09-24T03:03:11;36.53;;;20.42;;
31206;SDS011;17834;52.992;8.856;2022-09-24T03:05:37;36.70;;;21.55;;
31206;SDS011;17834;52.992;8.856;2022-09-24T03:08:03;34.38;;;19.25;;
31206;SDS011;17834;52.992;8.856;2022-09-24T03:10:31;35.05;;;21.00;;
31206;SDS011;17834;52.992;8.856;2022-09-24T03:12:57;32.95;;;19.63;;
31206;SDS011;17834;52.992;8.856;2022-09-24T03:15:23;38.10;;;20.55;;
31206;SDS011;17834;52.992;8.856;2022-09-24T03:17:49;33.03;;;19.35;;
31206;SDS011;17834;52.992;8.856;2022-09-24T03:20:15;41.33;;;21.00;;
31206;SDS011;17834;52.992;8.856;2022-09-24T03:22:41;36.60;;;20.73;;
31206;SDS011;17834;52.992;8.856;2022-09-24T03:25:07;36.03;;;20.95;;
31206;SDS011;17834;52.992;8.856;2022-09-24T03:27:34;36.90;;;19.85;;
31206;SDS011;17834;52.992;8.856;2022-09-24T03:30:00;37.05;;;20.10;;
31206;SDS011;17834;52.992;8.856;2022-09-24T03:32:46;40.03;;;20.52;;
31206;SDS011;17834;52.992;8.856;2022-09-24T03:35:12;37.22;;;20.70;;
31206;SDS011;17834;52.992;8.856;2022-09-24T03:37:39;38.67;;;21.02;;
31206;SDS011;17834;52.992;8.856;2022-09-24T03:40:07;33.03;;;19.65;;
31206;SDS011;17834;52.992;8.856;2022-09-24T03:42:33;33.03;;;18.83;;
31206;SDS011;17834;52.992;8.856;2022-09-24T03:44:59;38.63;;;20.92;;
31206;SDS011;17834;52.992;8.856;2022-09-24T03:47:25;41.13;;;21.52;;
31206;SDS011;17834;52.992;8.856;2022-09-24T03:49:51;39.72;;;20.10;;
31206;SDS011;17834;52.992;8.856;2022-09-24T03:52:17;34.28;;;18.92;;
31206;SDS011;17834;52.992;8.856;2022-09-24T03:54:43;32.65;;;18.08;;
31206;SDS011;17834;52.992;8.856;2022-09-24T03:57:09;36.85;;;20.02;;
31206;SDS011;17834;52.992;8.856;2022-09-24T03:59:38;39.65;;;19.30;;
31206;SDS011;17834;52.992;8.856;2022-09-24T04:02:04;36.10;;;19.65;;
31206;SDS011;17834;52.992;8.856;2022-09-24T04:04:30;37.05;;;19.17;;
31206;SDS011;17834;52.992;8.856;2022-09-24T04:06:56;32.03;;;17.20;;
31206;SDS011;17834;52.992;8.856;2022-09-24T04:09:22;31.80;;;17.95;;
31206;SDS011;17834;52.992;8.856;2022-09-24T04:11:48;33.83;;;18.20;;
31206;SDS011;17834;52.992;8.856;2022-09-24T04:14:17;31.75;;;18.05;;
31206;SDS011;17834;52.992;8.856;2022-09-24T04:16:43;31.40;;;17.33;;
31206;SDS011;17834;52.992;8.856;2022-09-24T04:19:09;29.30;;;17.27;;
31206;SDS011;17834;52.992;8.856;2022-09-24T04:21:35;34.47;;;18.83;;
31206;SDS011;17834;52.992;8.856;2022-09-24T04:24:01;29.85;;;16.55;;
31206;SDS011;17834;52.992;8.856;2022-09-24T04:26:27;36.45;;;18.90;;
31206;SDS011;17834;52.992;8.856;2022-09-24T04:28:53;32.88;;;16.88;;
31206;SDS011;17834;52.992;8.856;2022-09-24T04:31:20;32.85;;;17.80;;
31206;SDS011;17834;52.992;8.856;2022-09-24T04:33:47;34.55;;;19.60;;
31206;SDS011;17834;52.992;8.856;2022-09-24T04:36:13;36.10;;;18.52;;
31206;SDS011;17834;52.992;8.856;2022-09-24T04:38:39;32.28;;;18.80;;
31206;SDS011;17834;52.992;8.856;2022-09-24T04:41:05;28.98;;;17.15;;
31206;SDS011;17834;52.992;8.856;2022-09-24T04:43:32;34.58;;;18.35;;
31206;SDS011;17834;52.992;8.856;2022-09-24T04:45:58;30.67;;;18.02;;
31206;SDS011;17834;52.992;8.856;2022-09-24T04:48:25;32.25;;;17.98;;
31206;SDS011;17834;52.992;8.856;2022-09-24T04:50:51;37.28;;;18.27;;
31206;SDS011;17834;52.992;8.856;2022-09-24T04:53:17;33.53;;;18.38;;
31206;SDS011;17834;52.992;8.856;2022-09-24T04:55:43;35.45;;;19.23;;
31206;SDS011;17834;52.992;8.856;2022-09-24T04:58:09;37.95;;;20.67;;
31206;SDS011;17834;52.992;8.856;2022-09-24T05:00:36;39.00;;;20.25;;
31206;SDS011;17834;52.992;8.856;2022-09-24T05:03:02;39.17;;;20.38;;
31206;SDS011;17834;52.992;8.856;2022-09-24T05:05:28;40.20;;;22.50;;
31206;SDS011;17834;52.992;8.856;2022-09-24T05:07:55;39.42;;;21.30;;
31206;SDS011;17834;52.992;8.856;2022-09-24T05:10:22;48.25;;;24.42;;
31206;SDS011;17834;52.992;8.856;2022-09-24T05:12:48;44.97;;;24.48;;
31206;SDS011;17834;52.992;8.856;2022-09-24T05:15:14;44.55;;;21.08;;
31206;SDS011;17834;52.992;8.856;2022-09-24T05:17:43;45.78;;;23.20;;
31206;SDS011;17834;52.992;8.856;2022-09-24T05:20:09;50.60;;;23.75;;
31206;SDS011;17834;52.992;8.856;2022-09-24T05:22:39;47.78;;;24.75;;
31206;SDS011;17834;52.992;8.856;2022-09-24T05:25:05;54.72;;;25.63;;
31206;SDS011;17834;52.992;8.856;2022-09-24T05:27:31;52.35;;;25.02;;
31206;SDS011;17834;52.992;8.856;2022-09-24T05:29:57;58.05;;;26.80;;
31206;SDS011;17834;52.992;8.856;2022-09-24T05:32:24;53.40;;;24.52;;
31206;SDS011;17834;52.992;8.856;2022-09-24T05:34:51;50.25;;;25.98;;
31206;SDS011;17834;52.992;8.856;2022-09-24T05:37:18;56.33;;;27.50;;
31206;SDS011;17834;52.992;8.856;2022-09-24T05:39:44;58.38;;;26.83;;
31206;SDS011;17834;52.992;8.856;2022-09-24T05:42:10;58.22;;;27.42;;
31206;SDS011;17834;52.992;8.856;2022-09-24T05:44:40;54.10;;;28.30;;
31206;SDS011;17834;52.992;8.856;2022-09-24T05:47:07;48.67;;;25.67;;
31206;SDS011;17834;52.992;8.856;2022-09-24T05:49:33;54.05;;;26.70;;
31206;SDS011;17834;52.992;8.856;2022-09-24T05:51:59;53.13;;;27.13;;
31206;SDS011;17834;52.992;8.856;2022-09-24T05:54:25;61.00;;;29.33;;
31206;SDS011;17834;52.992;8.856;2022-09-24T05:56:51;57.58;;;26.67;;
31206;SDS011;17834;52.992;8.856;2022-09-24T05:59:18;49.05;;;27.63;;
31206;SDS011;17834;52.992;8.856;2022-09-24T06:01:43;57.22;;;27.45;;
31206;SDS011;17834;52.992;8.856;2022-09-24T06:04:09;56.85;;;28.33;;
31206;SDS011;17834;52.992;8.856;2022-09-24T06:06:36;58.28;;;30.17;;
31206;SDS011;17834;52.992;8.856;2022-09-24T06:09:02;54.47;;;28.58;;
31206;SDS011;17834;52.992;8.856;2022-09-24T06:11:32;57.45;;;28.73;;
31206;SDS011;17834;52.992;8.856;2022-09-24T06:13:59;59.10;;;30.23;;
31206;SDS011;17834;52.992;8.856;2022-09-24T06:16:26;58.80;;;29.15;;
31206;SDS011;17834;52.992;8.856;2022-09-24T06:18:53;54.88;;;28.35;;
31206;SDS011;17834;52.992;8.856;2022-09-24T06:21:18;63.83;;;31.77;;
31206;SDS011;17834;52.992;8.856;2022-09-24T06:23:45;56.35;;;27.73;;
31206;SDS011;17834;52.992;8.856;2022-09-24T06:26:11;59.95;;;31.67;;
31206;SDS011;17834;52.992;8.856;2022-09-24T06:28:38;61.08;;;31.30;;
31206;SDS011;17834;52.992;8.856;2022-09-24T06:31:04;60.90;;;29.35;;
31206;SDS011;17834;52.992;8.856;2022-09-24T06:33:30;57.47;;;31.48;;
31206;SDS011;17834;52.992;8.856;2022-09-24T06:36:00;61.45;;;30.65;;
31206;SDS011;17834;52.992;8.856;2022-09-24T06:38:26;60.60;;;30.40;;
31206;SDS011;17834;52.992;8.856;2022-09-24T06:40:56;63.78;;;31.35;;
31206;SDS011;17834;52.992;8.856;2022-09-24T06:43:23;60.17;;;30.33;;
31206;SDS011;17834;52.992;8.856;2022-09-24T06:45:49;65.13;;;32.25;;
31206;SDS011;17834;52.992;8.856;2022-09-24T06:48:14;63.60;;;32.17;;
31206;SDS011;17834;52.992;8.856;2022-09-24T06:50:42;56.33;;;29.42;;
31206;SDS011;17834;52.992;8.856;2022-09-24T06:53:09;54.70;;;28.73;;
31206;SDS011;17834;52.992;8.856;2022-09-24T06:55:36;60.78;;;29.35;;
31206;SDS011;17834;52.992;8.856;2022-09-24T06:58:06;52.97;;;29.30;;
31206;SDS011;17834;52.992;8.856;2022-09-24T07:00:33;58.60;;;29.33;;
31206;SDS011;17834;52.992;8.856;2022-09-24T07:02:59;60.83;;;30.85;;
31206;SDS011;17834;52.992;8.856;2022-09-24T07:05:25;63.15;;;31.10;;
31206;SDS011;17834;52.992;8.856;2022-09-24T07:07:51;55.63;;;29.63;;
31206;SDS011;17834;52.992;8.856;2022-09-24T07:10:17;57.22;;;30.95;;
31206;SDS011;17834;52.992;8.856;2022-09-24T07:12:43;55.17;;;29.60;;
31206;SDS011;17834;52.992;8.856;2022-09-24T07:15:09;57.03;;;27.98;;
31206;SDS011;17834;52.992;8.856;2022-09-24T07:17:35;55.55;;;27.70;;
31206;SDS011;17834;52.992;8.856;2022-09-24T07:20:02;55.13;;;28.20;;
31206;SDS011;17834;52.992;8.856;2022-09-24T07:22:29;60.50;;;30.30;;
31206;SDS011;17834;52.992;8.856;2022-09-24T07:24:55;58.25;;;30.02;;
31206;SDS011;17834;52.992;8.856;2022-09-24T07:27:21;62.17;;;30.17;;
31206;SDS011;17834;52.992;8.856;2022-09-24T07:29:47;58.35;;;29.35;;
31206;SDS011;17834;52.992;8.856;2022-09-24T07:32:14;60.97;;;30.45;;
31206;SDS011;17834;52.992;8.856;2022-09-24T07:34:40;55.88;;;28.88;;
31206;SDS011;17834;52.992;8.856;2022-09-24T07:37:06;54.60;;;28.13;;
31206;SDS011;17834;52.992;8.856;2022-09-24T07:39:32;56.42;;;29.48;;
31206;SDS011;17834;52.992;8.856;2022-09-24T07:41:58;57.90;;;28.85;;
31206;SDS011;17834;52.992;8.856;2022-09-24T07:44:25;59.60;;;29.23;;
31206;SDS011;17834;52.992;8.856;2022-09-24T07:46:53;57.83;;;29.35;;
31206;SDS011;17834;52.992;8.856;2022-09-24T07:49:19;59.25;;;28.83;;
31206;SDS011;17834;52.992;8.856;2022-09-24T07:51:45;60.22;;;29.90;;
31206;SDS011;17834;52.992;8.856;2022-09-24T07:54:11;58.00;;;31.33;;
31206;SDS011;17834;52.992;8.856;2022-09-24T07:56:37;57.67;;;29.23;;
31206;SDS011;17834;52.992;8.856;2022-09-24T07:59:03;52.17;;;28.95;;
31206;SDS011;17834;52.992;8.856;2022-09-24T08:01:30;63.00;;;31.95;;
31206;SDS011;17834;52.992;8.856;2022-09-24T08:03:56;59.70;;;30.70;;
31206;SDS011;17834;52.992;8.856;2022-09-24T08:06:23;56.30;;;29.50;;
31206;SDS011;17834;52.992;8.856;2022-09-24T08:08:49;55.70;;;29.98;;
31206;SDS011;17834;52.992;8.856;2022-09-24T08:11:17;51.03;;;28.73;;
31206;SDS011;17834;52.992;8.856;2022-09-24T08:13:43;52.53;;;30.02;;
31206;SDS011;17834;52.992;8.856;2022-09-24T08:16:09;55.15;;;29.52;;
31206;SDS011;17834;52.992;8.856;2022-09-24T08:18:35;58.67;;;29.33;;
31206;SDS011;17834;52.992;8.856;2022-09-24T08:21:08;57.03;;;29.30;;
31206;SDS011;17834;52.992;8.856;2022-09-24T08:23:35;55.35;;;29.70;;
31206;SDS011;17834;52.992;8.856;2022-09-24T08:26:01;51.25;;;27.58;;
31206;SDS011;17834;52.992;8.856;2022-09-24T08:28:27;52.65;;;28.48;;
31206;SDS011;17834;52.992;8.856;2022-09-24T08:31:03;54.92;;;27.17;;
31206;SDS011;17834;52.992;8.856;2022-09-24T08:33:32;47.30;;;26.20;;
31206;SDS011;17834;52.992;8.856;2022-09-24T08:35:58;50.92;;;27.85;;
31206;SDS011;17834;52.992;8.856;2022-09-24T08:38:24;45.92;;;25.83;;
31206;SDS011;17834;52.992;8.856;2022-09-24T08:41:06;48.25;;;25.75;;
31206;SDS011;17834;52.992;8.856;2022-09-24T08:46:16;50.20;;;26.40;;
31206;SDS011;17834;52.992;8.856;2022-09-24T08:49:03;45.92;;;25.45;;
31206;SDS011;17834;52.992;8.856;2022-09-24T08:51:30;49.25;;;26.13;;
31206;SDS011;17834;52.992;8.856;2022-09-24T08:54:04;46.80;;;27.40;;
31206;SDS011;17834;52.992;8.856;2022-09-24T08:56:33;48.65;;;25.52;;
31206;SDS011;17834;52.992;8.856;2022-09-24T09:01:43;50.85;;;26.48;;
31206;SDS011;17834;52.992;8.856;2022-09-24T09:06:56;53.70;;;28.73;;
31206;SDS011;17834;52.992;8.856;2022-09-24T09:09:31;51.03;;;26.42;;
31206;SDS011;17834;52.992;8.856;2022-09-24T09:12:03;49.20;;;26.52;;
31206;SDS011;17834;52.992;8.856;2022-09-24T09:14:35;53.25;;;28.83;;
31206;SDS011;17834;52.992;8.856;2022-09-24T09:17:04;47.75;;;26.15;;
31206;SDS011;17834;52.992;8.856;2022-09-24T09:19:37;49.15;;;27.75;;
31206;SDS011;17834;52.992;8.856;2022-09-24T09:22:15;48.20;;;27.05;;
31206;SDS011;17834;52.992;8.856;2022-09-24T09:27:10;46.72;;;24.80;;
31206;SDS011;17834;52.992;8.856;2022-09-24T09:29:38;45.95;;;25.55;;
31206;SDS011;17834;52.992;8.856;2022-09-24T09:32:15;43.90;;;23.73;;
31206;SDS011;17834;52.992;8.856;2022-09-24T09:42:46;41.35;;;21.95;;
31206;SDS011;17834;52.992;8.856;2022-09-24T09:45:33;42.90;;;24.23;;
31206;SDS011;17834;52.992;8.856;2022-09-24T09:48:00;41.63;;;22.88;;
31206;SDS011;17834;52.992;8.856;2022-09-24T09:52:53;40.53;;;22.38;;
31206;SDS011;17834;52.992;8.856;2022-09-24T09:55:29;37.40;;;21.00;;
31206;SDS011;17834;52.992;8.856;2022-09-24T10:00:40;38.67;;;20.50;;
31206;SDS011;17834;52.992;8.856;2022-09-24T10:03:25;41.88;;;22.70;;
31206;SDS011;17834;52.992;8.856;2022-09-24T10:05:54;43.35;;;23.30;;
31206;SDS011;17834;52.992;8.856;2022-09-24T10:08:21;36.25;;;21.33;;
31206;SDS011;17834;52.992;8.856;2022-09-24T10:10:51;39.15;;;22.02;;
31206;SDS011;17834;52.992;8.856;2022-09-24T10:13:19;40.25;;;21.35;;
31206;SDS011;17834;52.992;8.856;2022-09-24T10:18:20;41.30;;;22.75;;
31206;SDS011;17834;52.992;8.856;2022-09-24T10:20:48;38.88;;;21.55;;
31206;SDS011;17834;52.992;8.856;2022-09-24T10:23:18;37.75;;;20.58;;
31206;SDS011;17834;52.992;8.856;2022-09-24T10:25:57;40.15;;;22.27;;
31206;SDS011;17834;52.992;8.856;2022-09-24T10:28:23;44.08;;;24.13;;
31206;SDS011;17834;52.992;8.856;2022-09-24T10:31:12;42.80;;;23.23;;
31206;SDS011;17834;52.992;8.856;2022-09-24T10:33:40;39.80;;;21.10;;
31206;SDS011;17834;52.992;8.856;2022-09-24T10:36:12;38.78;;;21.30;;
31206;SDS011;17834;52.992;8.856;2022-09-24T10:38:39;38.25;;;21.27;;
31206;SDS011;17834;52.992;8.856;2022-09-24T10:44:02;37.10;;;21.05;;
31206;SDS011;17834;52.992;8.856;2022-09-24T10:49:26;37.78;;;22.00;;
31206;SDS011;17834;52.992;8.856;2022-09-24T10:54:43;33.08;;;18.95;;
31206;SDS011;17834;52.992;8.856;2022-09-24T11:10:05;32.25;;;18.33;;
31206;SDS011;17834;52.992;8.856;2022-09-24T11:18:05;31.35;;;17.45;;
31206;SDS011;17834;52.992;8.856;2022-09-24T11:20:37;34.80;;;19.10;;
31206;SDS011;17834;52.992;8.856;2022-09-24T11:23:20;28.10;;;17.17;;
31206;SDS011;17834;52.992;8.856;2022-09-24T11:28:39;34.42;;;17.15;;
31206;SDS011;17834;52.992;8.856;2022-09-24T11:31:24;29.48;;;17.40;;
31206;SDS011;17834;52.992;8.856;2022-09-24T11:33:58;33.38;;;17.17;;
31206;SDS011;17834;52.992;8.856;2022-09-24T11:39:00;29.08;;;16.25;;
31206;SDS011;17834;52.992;8.856;2022-09-24T11:46:56;30.95;;;16.23;;
31206;SDS011;17834;52.992;8.856;2022-09-24T11:49:34;27.95;;;15.77;;
31206;SDS011;17834;52.992;8.856;2022-09-24T11:52:04;27.27;;;15.13;;
31206;SDS011;17834;52.992;8.856;2022-09-24T11:57:12;24.10;;;13.55;;
31206;SDS011;17834;52.992;8.856;2022-09-24T11:59:48;25.98;;;14.32;;
31206;SDS011;17834;52.992;8.856;2022-09-24T12:02:17;26.13;;;14.40;;
31206;SDS011;17834;52.992;8.856;2022-09-24T12:04:47;28.50;;;15.10;;
31206;SDS011;17834;52.992;8.856;2022-09-24T12:07:36;29.60;;;16.58;;
31206;SDS011;17834;52.992;8.856;2022-09-24T12:12:49;36.38;;;16.92;;
31206;SDS011;17834;52.992;8.856;2022-09-24T12:15:17;31.27;;;16.65;;
31206;SDS011;17834;52.992;8.856;2022-09-24T12:17:45;28.95;;;15.70;;
31206;SDS011;17834;52.992;8.856;2022-09-24T12:20:21;28.02;;;15.70;;
31206;SDS011;17834;52.992;8.856;2022-09-24T12:22:50;27.88;;;15.52;;
31206;SDS011;17834;52.992;8.856;2022-09-24T12:25:24;27.40;;;14.15;;
31206;SDS011;17834;52.992;8.856;2022-09-24T12:27:51;30.13;;;15.32;;
31206;SDS011;17834;52.992;8.856;2022-09-24T12:30:33;30.55;;;15.57;;
31206;SDS011;17834;52.992;8.856;2022-09-24T12:35:55;28.73;;;15.65;;
31206;SDS011;17834;52.992;8.856;2022-09-24T12:41:06;32.67;;;15.98;;
31206;SDS011;17834;52.992;8.856;2022-09-24T12:43:39;30.15;;;15.88;;
31206;SDS011;17834;52.992;8.856;2022-09-24T12:46:16;24.90;;;12.50;;
31206;SDS011;17834;52.992;8.856;2022-09-24T12:48:43;31.13;;;16.83;;
31206;SDS011;17834;52.992;8.856;2022-09-24T12:51:11;30.75;;;16.35;;
31206;SDS011;17834;52.992;8.856;2022-09-24T12:53:40;29.08;;;16.70;;
31206;SDS011;17834;52.992;8.856;2022-09-24T12:56:07;30.33;;;16.00;;
31206;SDS011;17834;52.992;8.856;2022-09-24T12:58:43;34.67;;;17.52;;
31206;SDS011;17834;52.992;8.856;2022-09-24T13:01:11;30.40;;;15.32;;
31206;SDS011;17834;52.992;8.856;2022-09-24T13:03:38;33.35;;;16.67;;
31206;SDS011;17834;52.992;8.856;2022-09-24T13:06:22;29.10;;;16.25;;
31206;SDS011;17834;52.992;8.856;2022-09-24T13:08:48;36.03;;;19.10;;
31206;SDS011;17834;52.992;8.856;2022-09-24T13:11:24;33.67;;;16.92;;
31206;SDS011;17834;52.992;8.856;2022-09-24T13:13:58;29.30;;;16.38;;
31206;SDS011;17834;52.992;8.856;2022-09-24T13:16:24;26.60;;;14.40;;
31206;SDS011;17834;52.992;8.856;2022-09-24T13:18:54;27.30;;;14.85;;
31206;SDS011;17834;52.992;8.856;2022-09-24T13:21:21;29.60;;;16.98;;
31206;SDS011;17834;52.992;8.856;2022-09-24T13:23:49;31.15;;;16.90;;
31206;SDS011;17834;52.992;8.856;2022-09-24T13:26:25;29.42;;;15.45;;
31206;SDS011;17834;52.992;8.856;2022-09-24T13:28:56;28.23;;;15.70;;
31206;SDS011;17834;52.992;8.856;2022-09-24T13:33:49;31.08;;;17.00;;
31206;SDS011;17834;52.992;8.856;2022-09-24T13:36:17;30.25;;;17.20;;
31206;SDS011;17834;52.992;8.856;2022-09-24T13:39:02;30.48;;;17.30;;
31206;SDS011;17834;52.992;8.856;2022-09-24T13:44:18;28.50;;;16.75;;
31206;SDS011;17834;52.992;8.856;2022-09-24T13:46:45;31.42;;;17.80;;
31206;SDS011;17834;52.992;8.856;2022-09-24T13:49:14;32.15;;;16.80;;
31206;SDS011;17834;52.992;8.856;2022-09-24T13:51:41;30.92;;;16.75;;
31206;SDS011;17834;52.992;8.856;2022-09-24T13:54:52;31.60;;;17.05;;
31206;SDS011;17834;52.992;8.856;2022-09-24T13:57:10;27.55;;;15.85;;
31206;SDS011;17834;52.992;8.856;2022-09-24T13:59:37;28.45;;;16.70;;
31206;SDS011;17834;52.992;8.856;2022-09-24T14:02:03;33.50;;;17.63;;
31206;SDS011;17834;52.992;8.856;2022-09-24T14:04:29;29.05;;;18.05;;
31206;SDS011;17834;52.992;8.856;2022-09-24T14:06:56;28.77;;;16.33;;
31206;SDS011;17834;52.992;8.856;2022-09-24T14:09:32;31.52;;;17.40;;
31206;SDS011;17834;52.992;8.856;2022-09-24T14:12:11;32.25;;;16.58;;
31206;SDS011;17834;52.992;8.856;2022-09-24T14:14:44;29.80;;;16.92;;
31206;SDS011;17834;52.992;8.856;2022-09-24T14:17:11;30.08;;;17.02;;
31206;SDS011;17834;52.992;8.856;2022-09-24T14:19:38;30.65;;;16.67;;
31206;SDS011;17834;52.992;8.856;2022-09-24T14:22:04;28.35;;;16.40;;
31206;SDS011;17834;52.992;8.856;2022-09-24T14:24:32;25.92;;;15.55;;
31206;SDS011;17834;52.992;8.856;2022-09-24T14:27:04;31.42;;;17.77;;
31206;SDS011;17834;52.992;8.856;2022-09-24T14:29:39;30.30;;;17.60;;
31206;SDS011;17834;52.992;8.856;2022-09-24T14:32:18;30.95;;;16.95;;
31206;SDS011;17834;52.992;8.856;2022-09-24T14:34:45;27.75;;;15.07;;
31206;SDS011;17834;52.992;8.856;2022-09-24T14:37:20;25.65;;;15.02;;
31206;SDS011;17834;52.992;8.856;2022-09-24T14:39:47;26.83;;;15.77;;
31206;SDS011;17834;52.992;8.856;2022-09-24T14:42:21;27.05;;;15.80;;
31206;SDS011;17834;52.992;8.856;2022-09-24T14:44:49;28.53;;;15.90;;
31206;SDS011;17834;52.992;8.856;2022-09-24T14:47:28;30.50;;;15.80;;
31206;SDS011;17834;52.992;8.856;2022-09-24T14:49:55;31.60;;;16.70;;
31206;SDS011;17834;52.992;8.856;2022-09-24T14:52:42;26.50;;;15.80;;
31206;SDS011;17834;52.992;8.856;2022-09-24T14:57:39;27.08;;;14.38;;
31206;SDS011;17834;52.992;8.856;2022-09-24T15:00:22;26.25;;;14.80;;
31206;SDS011;17834;52.992;8.856;2022-09-24T15:02:49;23.88;;;14.23;;
31206;SDS011;17834;52.992;8.856;2022-09-24T15:05:16;25.52;;;14.45;;
31206;SDS011;17834;52.992;8.856;2022-09-24T15:07:47;29.10;;;15.43;;
31206;SDS011;17834;52.992;8.856;2022-09-24T15:10:17;31.50;;;16.27;;
31206;SDS011;17834;52.992;8.856;2022-09-24T15:12:45;28.35;;;15.75;;
31206;SDS011;17834;52.992;8.856;2022-09-24T15:17:41;26.92;;;15.43;;
31206;SDS011;17834;52.992;8.856;2022-09-24T15:20:08;25.75;;;14.82;;
31206;SDS011;17834;52.992;8.856;2022-09-24T15:22:34;25.90;;;14.57;;
31206;SDS011;17834;52.992;8.856;2022-09-24T15:25:00;25.20;;;13.88;;
31206;SDS011;17834;52.992;8.856;2022-09-24T15:27:34;27.27;;;14.18;;
31206;SDS011;17834;52.992;8.856;2022-09-24T15:30:03;24.40;;;14.60;;
31206;SDS011;17834;52.992;8.856;2022-09-24T15:32:30;24.55;;;13.85;;
31206;SDS011;17834;52.992;8.856;2022-09-24T15:34:56;25.88;;;14.27;;
31206;SDS011;17834;52.992;8.856;2022-09-24T15:37:23;24.55;;;13.43;;
31206;SDS011;17834;52.992;8.856;2022-09-24T15:39:49;30.65;;;15.60;;
31206;SDS011;17834;52.992;8.856;2022-09-24T15:42:17;24.13;;;12.75;;
31206;SDS011;17834;52.992;8.856;2022-09-24T15:44:43;26.73;;;14.05;;
31206;SDS011;17834;52.992;8.856;2022-09-24T15:47:10;22.23;;;12.65;;
31206;SDS011;17834;52.992;8.856;2022-09-24T15:49:36;25.27;;;13.38;;
31206;SDS011;17834;52.992;8.856;2022-09-24T15:52:22;27.42;;;14.73;;
31206;SDS011;17834;52.992;8.856;2022-09-24T15:54:50;26.50;;;14.63;;
31206;SDS011;17834;52.992;8.856;2022-09-24T15:57:16;24.65;;;14.15;;
31206;SDS011;17834;52.992;8.856;2022-09-24T15:59:42;28.63;;;14.88;;
31206;SDS011;17834;52.992;8.856;2022-09-24T16:02:22;26.85;;;13.65;;
31206;SDS011;17834;52.992;8.856;2022-09-24T16:04:48;30.58;;;15.00;;
31206;SDS011;17834;52.992;8.856;2022-09-24T16:07:14;27.55;;;14.65;;
31206;SDS011;17834;52.992;8.856;2022-09-24T16:09:41;30.75;;;14.98;;
31206;SDS011;17834;52.992;8.856;2022-09-24T16:12:08;27.63;;;14.57;;
31206;SDS011;17834;52.992;8.856;2022-09-24T16:14:34;26.48;;;14.00;;